Time;durP1;ratioP1;P1;durP2;ratioP2;P2;SDS_P1;SDS_P2;PMS_P1;PMS_P2;Temp;Humidity;BMP_temperature;BMP_pressure;BME280_temperature;BME280_humidity;BME280_pressure;Samples;Min_cycle;Max_cycle;Signal;HPM_P1;HPM_P2
2021/09/27 00:00:18;;;;;;;10.85;5.63;;;;;;;;;;5070352;28;20029;-58
2021/09/27 00:02:44;;;;;;;13.52;5.95;;;;;;;;;;5069658;28;20098;-56
2021/09/27 00:05:12;;;;;;;11.05;6.25;;;;;;;;;;5068473;28;20071;-56
2021/09/27 00:07:38;;;;;;;11.30;6.00;;;;;;;;;;5071197;28;20495;-56
2021/09/27 00:10:05;;;;;;;9.02;5.53;;;;;;;;;;5070560;28;20032;-54
2021/09/27 00:12:31;;;;;;;10.13;5.80;;;;;;;;;;5068374;28;20029;-56
2021/09/27 00:14:57;;;;;;;9.90;5.82;;;;;;;;;;5067489;28;20036;-59
2021/09/27 00:17:23;;;;;;;18.50;6.80;;;;;;;;;;5069147;28;20036;-58
2021/09/27 00:19:49;;;;;;;11.13;6.28;;;;;;;;;;5065765;28;20031;-57
2021/09/27 00:22:15;;;;;;;11.57;6.03;;;;;;;;;;5071355;28;20059;-54
2021/09/27 00:24:41;;;;;;;11.98;6.00;;;;;;;;;;5068800;28;20423;-56
2021/09/27 00:27:07;;;;;;;11.73;6.25;;;;;;;;;;5071026;28;20040;-59
2021/09/27 00:29:33;;;;;;;10.32;6.10;;;;;;;;;;5071793;28;20021;-57
2021/09/27 00:31:59;;;;;;;13.50;6.53;;;;;;;;;;5071507;28;20047;-54
2021/09/27 00:34:25;;;;;;;11.20;5.85;;;;;;;;;;5071339;28;20043;-58
2021/09/27 00:36:51;;;;;;;11.00;5.85;;;;;;;;;;5067670;28;20037;-58
2021/09/27 00:39:17;;;;;;;9.75;5.45;;;;;;;;;;5069648;28;20077;-58
2021/09/27 00:41:44;;;;;;;9.40;4.90;;;;;;;;;;5067659;28;20035;-55
2021/09/27 00:44:10;;;;;;;8.90;5.25;;;;;;;;;;5071745;28;20024;-55
2021/09/27 00:46:36;;;;;;;11.65;5.90;;;;;;;;;;5071610;28;20098;-57
2021/09/27 00:49:02;;;;;;;10.05;5.55;;;;;;;;;;5069818;28;20076;-53
2021/09/27 00:51:30;;;;;;;8.63;5.38;;;;;;;;;;5069637;28;20078;-58
2021/09/27 00:54:02;;;;;;;9.48;4.93;;;;;;;;;;5071383;28;20032;-56
2021/09/27 00:56:30;;;;;;;11.38;5.90;;;;;;;;;;5071046;28;20024;-56
2021/09/27 00:58:57;;;;;;;12.60;5.60;;;;;;;;;;5069329;28;20036;-59
2021/09/27 01:01:23;;;;;;;9.75;5.57;;;;;;;;;;5070392;28;20117;-57
2021/09/27 01:03:50;;;;;;;8.35;5.07;;;;;;;;;;5071496;28;20116;-57
2021/09/27 01:06:22;;;;;;;8.48;4.78;;;;;;;;;;5062203;28;20032;-55
2021/09/27 01:08:58;;;;;;;9.65;4.85;;;;;;;;;;5070837;28;20056;-55
2021/09/27 01:11:43;;;;;;;11.43;5.63;;;;;;;;;;5069803;28;20040;-58
2021/09/27 01:14:18;;;;;;;11.57;6.03;;;;;;;;;;5071234;28;20123;-58
2021/09/27 01:16:50;;;;;;;10.57;5.35;;;;;;;;;;5070713;28;20664;-56
2021/09/27 01:19:37;;;;;;;10.07;6.00;;;;;;;;;;5066285;28;20048;-57
2021/09/27 01:22:06;;;;;;;13.10;6.57;;;;;;;;;;5070103;28;20041;-56
2021/09/27 01:24:32;;;;;;;8.48;4.82;;;;;;;;;;5069921;28;20024;-55
2021/09/27 01:27:09;;;;;;;8.50;5.00;;;;;;;;;;5074655;28;20050;-55
2021/09/27 01:29:55;;;;;;;8.60;4.97;;;;;;;;;;5067571;28;20025;-55
2021/09/27 01:32:30;;;;;;;7.93;4.85;;;;;;;;;;5031232;28;20029;-54
2021/09/27 01:35:07;;;;;;;7.95;4.95;;;;;;;;;;5072199;28;20481;-57
2021/09/27 01:37:48;;;;;;;9.90;5.20;;;;;;;;;;5072515;28;20028;-57
2021/09/27 01:40:20;;;;;;;6.47;4.97;;;;;;;;;;5071335;28;20103;-57
2021/09/27 01:42:49;;;;;;;8.98;4.72;;;;;;;;;;5073278;28;20027;-56
2021/09/27 01:45:21;;;;;;;7.47;5.20;;;;;;;;;;5073328;28;20039;-58
2021/09/27 01:47:51;;;;;;;7.88;5.03;;;;;;;;;;5071149;28;20059;-55
2021/09/27 01:50:21;;;;;;;8.20;5.00;;;;;;;;;;5069270;28;20039;-55
2021/09/27 01:52:52;;;;;;;9.60;5.57;;;;;;;;;;5068722;28;20044;-53
2021/09/27 01:55:30;;;;;;;9.60;5.53;;;;;;;;;;5074928;28;20099;-57
2021/09/27 01:58:05;;;;;;;9.30;5.65;;;;;;;;;;5073507;28;20424;-56
2021/09/27 02:00:49;;;;;;;8.27;5.25;;;;;;;;;;5068531;28;20158;-55
2021/09/27 02:03:22;;;;;;;8.82;5.35;;;;;;;;;;5076019;28;20186;-56
2021/09/27 02:05:58;;;;;;;9.20;4.77;;;;;;;;;;5074254;28;20107;-56
2021/09/27 02:08:27;;;;;;;10.52;5.60;;;;;;;;;;5071633;28;20524;-57
2021/09/27 02:11:09;;;;;;;9.82;6.05;;;;;;;;;;5064674;28;20447;-58
2021/09/27 02:13:37;;;;;;;9.32;5.50;;;;;;;;;;5072767;28;20062;-54
2021/09/27 02:16:11;;;;;;;9.23;5.57;;;;;;;;;;5064528;28;20043;-56
2021/09/27 02:18:54;;;;;;;11.52;6.18;;;;;;;;;;5069050;28;20119;-57
2021/09/27 02:21:22;;;;;;;9.82;5.25;;;;;;;;;;5068117;28;20067;-57
2021/09/27 02:23:52;;;;;;;12.35;4.95;;;;;;;;;;5073813;28;20036;-57
2021/09/27 02:26:18;;;;;;;9.98;5.63;;;;;;;;;;5074260;28;20027;-58
2021/09/27 02:28:44;;;;;;;10.57;5.82;;;;;;;;;;5071106;28;20492;-54
2021/09/27 02:31:15;;;;;;;9.38;6.20;;;;;;;;;;5070907;28;20036;-54
2021/09/27 02:34:00;;;;;;;7.97;5.30;;;;;;;;;;5073708;28;20020;-54
2021/09/27 02:36:29;;;;;;;8.88;5.55;;;;;;;;;;5061137;28;20039;-55
2021/09/27 02:38:55;;;;;;;9.82;5.38;;;;;;;;;;5072181;28;20119;-58
2021/09/27 02:41:28;;;;;;;7.32;4.78;;;;;;;;;;5073497;28;20029;-57
2021/09/27 02:43:54;;;;;;;9.07;5.65;;;;;;;;;;5073243;28;20183;-55
2021/09/27 02:46:22;;;;;;;8.32;5.80;;;;;;;;;;5070267;28;20583;-57
2021/09/27 02:51:32;;;;;;;10.65;5.80;;;;;;;;;;5072196;28;20082;-57
2021/09/27 02:53:58;;;;;;;10.13;5.38;;;;;;;;;;5073091;28;20028;-55
2021/09/27 02:56:43;;;;;;;8.55;5.10;;;;;;;;;;5073796;28;20032;-56
2021/09/27 02:59:18;;;;;;;8.60;5.25;;;;;;;;;;5071185;28;20119;-56
2021/09/27 03:01:50;;;;;;;8.88;5.82;;;;;;;;;;5073543;28;20044;-54
2021/09/27 03:04:20;;;;;;;10.50;4.90;;;;;;;;;;5072665;28;20021;-57
2021/09/27 03:07:05;;;;;;;10.27;5.70;;;;;;;;;;5073739;28;20103;-56
2021/09/27 03:09:41;;;;;;;9.63;6.22;;;;;;;;;;5070607;28;20111;-56
2021/09/27 03:12:19;;;;;;;9.85;5.82;;;;;;;;;;5073262;28;20045;-56
2021/09/27 03:14:45;;;;;;;11.27;5.63;;;;;;;;;;5072100;28;20601;-57
2021/09/27 03:17:17;;;;;;;6.85;5.25;;;;;;;;;;5070494;28;20056;-56
2021/09/27 03:20:01;;;;;;;8.10;5.10;;;;;;;;;;5070686;28;20165;-55
2021/09/27 03:22:46;;;;;;;8.50;5.25;;;;;;;;;;5071930;28;20171;-57
2021/09/27 03:25:21;;;;;;;9.48;4.82;;;;;;;;;;5069708;28;20020;-54
2021/09/27 03:28:06;;;;;;;10.30;5.90;;;;;;;;;;5067108;28;20103;-57
2021/09/27 03:30:32;;;;;;;10.73;5.93;;;;;;;;;;5070553;28;20028;-55
2021/09/27 03:33:01;;;;;;;10.52;6.00;;;;;;;;;;5072098;28;20510;-57
2021/09/27 03:35:36;;;;;;;10.52;5.50;;;;;;;;;;5072518;28;20115;-55
2021/09/27 03:38:02;;;;;;;7.30;4.75;;;;;;;;;;5071723;28;20108;-55
2021/09/27 03:40:32;;;;;;;8.00;4.93;;;;;;;;;;5067035;28;20032;-55
2021/09/27 03:43:17;;;;;;;10.98;5.43;;;;;;;;;;5072255;28;20033;-56
2021/09/27 03:45:49;;;;;;;8.30;5.25;;;;;;;;;;5068154;28;20104;-57
2021/09/27 03:48:45;;;;;;;7.13;4.75;;;;;;;;;;5067780;28;20024;-55
2021/09/27 03:51:15;;;;;;;9.65;5.07;;;;;;;;;;5048691;28;20553;-55
2021/09/27 03:54:07;;;;;;;8.07;4.82;;;;;;;;;;5072153;28;20456;-56
2021/09/27 03:56:37;;;;;;;9.10;4.47;;;;;;;;;;5070458;28;20051;-54
2021/09/27 03:59:08;;;;;;;8.45;5.53;;;;;;;;;;5062472;28;20108;-56
2021/09/27 04:01:48;;;;;;;7.68;4.90;;;;;;;;;;5070028;28;20587;-54
2021/09/27 04:04:17;;;;;;;8.68;5.18;;;;;;;;;;5064894;28;20069;-55
2021/09/27 04:06:50;;;;;;;8.48;4.97;;;;;;;;;;5070775;28;20080;-55
2021/09/27 04:09:35;;;;;;;10.57;5.40;;;;;;;;;;5071540;28;20070;-56
2021/09/27 04:12:20;;;;;;;10.32;5.25;;;;;;;;;;5064869;28;20059;-56
2021/09/27 04:14:48;;;;;;;9.70;5.65;;;;;;;;;;5067531;28;20089;-55
2021/09/27 04:17:33;;;;;;;9.10;5.18;;;;;;;;;;5068305;28;20123;-58
2021/09/27 04:20:07;;;;;;;8.27;5.63;;;;;;;;;;5070351;28;20506;-56
2021/09/27 04:22:43;;;;;;;9.43;5.53;;;;;;;;;;5067315;28;20064;-59
2021/09/27 04:25:15;;;;;;;8.77;5.65;;;;;;;;;;5068433;28;20119;-57
2021/09/27 04:27:46;;;;;;;9.85;5.40;;;;;;;;;;5069761;28;20066;-56
2021/09/27 04:30:19;;;;;;;8.77;4.97;;;;;;;;;;5070740;28;20048;-57
2021/09/27 04:33:09;;;;;;;7.72;5.13;;;;;;;;;;5070512;28;20056;-56
2021/09/27 04:35:55;;;;;;;13.88;4.93;;;;;;;;;;5067112;28;20031;-54
2021/09/27 04:38:21;;;;;;;9.93;5.70;;;;;;;;;;5055840;28;20123;-57
2021/09/27 04:40:56;;;;;;;7.57;5.00;;;;;;;;;;5059047;28;20040;-55
2021/09/27 04:43:22;;;;;;;10.00;5.80;;;;;;;;;;5065366;28;20161;-57
2021/09/27 04:45:55;;;;;;;8.88;5.20;;;;;;;;;;5068891;28;20020;-57
2021/09/27 04:48:48;;;;;;;9.05;5.35;;;;;;;;;;5069344;28;20044;-56
2021/09/27 04:51:16;;;;;;;8.32;4.53;;;;;;;;;;5028644;28;20051;-55
2021/09/27 04:53:59;;;;;;;9.38;5.25;;;;;;;;;;5070281;28;20029;-55
2021/09/27 04:56:37;;;;;;;9.55;5.50;;;;;;;;;;5070751;28;20115;-56
2021/09/27 04:59:19;;;;;;;9.63;5.85;;;;;;;;;;5065033;28;20037;-55
2021/09/27 05:02:02;;;;;;;8.50;5.47;;;;;;;;;;5074703;28;20030;-55
2021/09/27 05:04:44;;;;;;;7.13;4.55;;;;;;;;;;5071688;28;20052;-55
2021/09/27 05:07:19;;;;;;;8.82;5.05;;;;;;;;;;5064621;28;20032;-56
2021/09/27 05:09:51;;;;;;;8.35;4.90;;;;;;;;;;5074417;28;20024;-53
2021/09/27 05:12:23;;;;;;;8.15;5.78;;;;;;;;;;5070461;28;20416;-58
2021/09/27 05:15:08;;;;;;;7.78;5.38;;;;;;;;;;5071257;28;20125;-56
2021/09/27 05:17:58;;;;;;;10.35;5.82;;;;;;;;;;5073675;28;20044;-57
2021/09/27 05:20:34;;;;;;;13.68;6.80;;;;;;;;;;5068857;28;20107;-57
2021/09/27 05:23:05;;;;;;;10.40;6.03;;;;;;;;;;5068339;28;20524;-57
2021/09/27 05:25:38;;;;;;;10.45;6.25;;;;;;;;;;5076054;28;20036;-56
2021/09/27 05:28:19;;;;;;;11.27;6.80;;;;;;;;;;5070810;28;20028;-54
2021/09/27 05:31:10;;;;;;;10.23;6.25;;;;;;;;;;5070981;28;20259;-56
2021/09/27 05:33:48;;;;;;;8.88;5.85;;;;;;;;;;5073102;28;20032;-56
2021/09/27 05:36:19;;;;;;;9.77;5.60;;;;;;;;;;5074118;28;20511;-57
2021/09/27 05:39:09;;;;;;;11.18;5.70;;;;;;;;;;5074764;28;20028;-55
2021/09/27 05:42:01;;;;;;;11.10;6.20;;;;;;;;;;5054598;28;20059;-58
2021/09/27 05:44:42;;;;;;;8.52;5.45;;;;;;;;;;5075150;28;20024;-56
2021/09/27 05:47:18;;;;;;;10.20;5.75;;;;;;;;;;5074063;28;20105;-58
2021/09/27 05:49:58;;;;;;;11.18;6.28;;;;;;;;;;5078784;28;20024;-53
2021/09/27 05:52:39;;;;;;;9.73;6.43;;;;;;;;;;5077120;28;20028;-55
2021/09/27 05:55:09;;;;;;;10.90;6.05;;;;;;;;;;5074837;28;20808;-57
2021/09/27 05:57:42;;;;;;;9.13;5.82;;;;;;;;;;5074013;28;20032;-56
2021/09/27 06:00:18;;;;;;;9.77;6.78;;;;;;;;;;5074721;28;20074;-55
2021/09/27 06:03:05;;;;;;;12.05;7.22;;;;;;;;;;5062641;28;20025;-54
2021/09/27 06:05:39;;;;;;;9.95;6.28;;;;;;;;;;5073322;28;20388;-54
2021/09/27 06:08:19;;;;;;;9.10;6.03;;;;;;;;;;5073249;28;20020;-54
2021/09/27 06:10:50;;;;;;;9.68;6.50;;;;;;;;;;5074091;28;20052;-59
2021/09/27 06:13:22;;;;;;;11.20;7.07;;;;;;;;;;5074185;28;20032;-57
2021/09/27 06:15:50;;;;;;;13.38;6.28;;;;;;;;;;5074057;28;20032;-52
2021/09/27 06:18:19;;;;;;;10.27;6.35;;;;;;;;;;5072886;28;20044;-57
2021/09/27 06:20:57;;;;;;;9.98;6.18;;;;;;;;;;5071810;28;20012;-58
2021/09/27 06:23:30;;;;;;;11.65;6.53;;;;;;;;;;5073215;28;20025;-58
2021/09/27 06:25:56;;;;;;;;;;;;;;;;;;5064403;28;20029;-56
2021/09/27 06:28:28;;;;;;;10.73;6.75;;;;;;;;;;5068073;28;20013;-59
2021/09/27 06:31:08;;;;;;;10.18;6.22;;;;;;;;;;5066583;28;20396;-56
2021/09/27 06:33:40;;;;;;;11.77;7.05;;;;;;;;;;5066696;28;20091;-58
2021/09/27 06:36:07;;;;;;;12.13;6.80;;;;;;;;;;5071988;28;20032;-60
2021/09/27 06:38:35;;;;;;;11.77;6.07;;;;;;;;;;5064980;28;20122;-60
2021/09/27 06:41:02;;;;;;;10.38;6.20;;;;;;;;;;5067992;28;20381;-58
2021/09/27 06:43:28;;;;;;;9.45;5.40;;;;;;;;;;5071126;28;20465;-59
2021/09/27 06:45:55;;;;;;;11.57;6.47;;;;;;;;;;5062857;28;20025;-59
2021/09/27 06:48:21;;;;;;;13.45;7.15;;;;;;;;;;5066253;28;20039;-59
2021/09/27 06:50:47;;;;;;;9.85;6.20;;;;;;;;;;5067048;28;20120;-59
2021/09/27 06:53:14;;;;;;;11.50;7.20;;;;;;;;;;5072125;28;20570;-57
2021/09/27 06:55:40;;;;;;;9.35;6.03;;;;;;;;;;5068725;28;20067;-59
2021/09/27 06:58:06;;;;;;;10.75;6.22;;;;;;;;;;5070990;28;20082;-58
2021/09/27 07:00:32;;;;;;;12.65;6.72;;;;;;;;;;5067792;28;20021;-60
2021/09/27 07:02:58;;;;;;;10.80;6.47;;;;;;;;;;5069557;28;20032;-56
2021/09/27 07:05:25;;;;;;;11.13;6.75;;;;;;;;;;5071149;28;20169;-58
2021/09/27 07:07:50;;;;;;;9.60;6.38;;;;;;;;;;5070463;28;20059;-58
2021/09/27 07:10:19;;;;;;;9.32;5.95;;;;;;;;;;5061163;28;20017;-55
2021/09/27 07:12:45;;;;;;;8.68;6.13;;;;;;;;;;5065693;28;20033;-59
2021/09/27 07:15:11;;;;;;;10.05;6.35;;;;;;;;;;5063217;28;20126;-58
2021/09/27 07:17:38;;;;;;;11.48;6.85;;;;;;;;;;5070046;28;20068;-58
2021/09/27 07:20:05;;;;;;;9.55;5.88;;;;;;;;;;5071126;28;20504;-60
2021/09/27 07:22:34;;;;;;;11.77;6.20;;;;;;;;;;5069207;28;20082;-60
2021/09/27 07:25:01;;;;;;;10.15;6.35;;;;;;;;;;5069728;28;20047;-59
2021/09/27 07:27:27;;;;;;;12.60;6.85;;;;;;;;;;5063205;28;20017;-59
2021/09/27 07:29:53;;;;;;;8.52;5.93;;;;;;;;;;5064528;28;20016;-58
2021/09/27 07:32:18;;;;;;;9.23;5.82;;;;;;;;;;5069998;28;20097;-60
2021/09/27 07:34:44;;;;;;;10.73;6.35;;;;;;;;;;5070846;28;20035;-59
2021/09/27 07:37:10;;;;;;;10.25;6.80;;;;;;;;;;5068360;28;20032;-58
2021/09/27 07:39:36;;;;;;;13.88;6.22;;;;;;;;;;5071160;28;20210;-59
2021/09/27 07:42:03;;;;;;;9.68;6.57;;;;;;;;;;5064150;28;20037;-60
2021/09/27 07:44:29;;;;;;;10.68;6.55;;;;;;;;;;5071339;28;20025;-60
2021/09/27 07:46:55;;;;;;;9.80;5.75;;;;;;;;;;5070969;28;20047;-60
2021/09/27 07:49:21;;;;;;;10.48;6.97;;;;;;;;;;5064665;28;20024;-60
2021/09/27 07:51:47;;;;;;;10.07;6.78;;;;;;;;;;5068781;28;20032;-60
2021/09/27 07:54:14;;;;;;;9.52;5.75;;;;;;;;;;5068213;28;20468;-56
2021/09/27 07:56:39;;;;;;;10.48;6.47;;;;;;;;;;5066885;28;20029;-59
2021/09/27 07:59:06;;;;;;;10.98;6.35;;;;;;;;;;5061445;28;20387;-60
2021/09/27 08:01:33;;;;;;;10.15;6.90;;;;;;;;;;5069612;28;20334;-59
2021/09/27 08:04:00;;;;;;;9.90;6.68;;;;;;;;;;5071031;28;20036;-59
2021/09/27 08:06:26;;;;;;;11.35;6.50;;;;;;;;;;5065277;28;20025;-60
2021/09/27 08:08:52;;;;;;;14.30;7.18;;;;;;;;;;5065470;28;20388;-60
2021/09/27 08:11:18;;;;;;;12.02;7.10;;;;;;;;;;5064629;28;20025;-58
2021/09/27 08:13:44;;;;;;;12.82;6.43;;;;;;;;;;5067669;28;20031;-59
2021/09/27 08:16:10;;;;;;;13.68;7.07;;;;;;;;;;5064625;28;20052;-60
2021/09/27 08:18:37;;;;;;;12.60;6.90;;;;;;;;;;5063477;28;20131;-60
2021/09/27 08:21:05;;;;;;;13.57;6.95;;;;;;;;;;5060498;28;20162;-59
2021/09/27 08:23:31;;;;;;;11.02;6.40;;;;;;;;;;5071739;28;20406;-60
2021/09/27 08:25:57;;;;;;;11.88;6.63;;;;;;;;;;5072100;28;20025;-60
2021/09/27 08:28:26;;;;;;;10.35;6.43;;;;;;;;;;5072120;28;20375;-60
2021/09/27 08:30:54;;;;;;;9.65;6.68;;;;;;;;;;5065128;28;20103;-59
2021/09/27 08:33:21;;;;;;;11.70;6.18;;;;;;;;;;5070891;28;20028;-59
2021/09/27 08:35:48;;;;;;;11.07;6.35;;;;;;;;;;5070514;28;20051;-60
2021/09/27 08:38:15;;;;;;;9.80;6.53;;;;;;;;;;5067021;28;20021;-60
2021/09/27 08:40:59;;;;;;;9.60;5.60;;;;;;;;;;5064628;28;20105;-60
2021/09/27 08:43:39;;;;;;;11.13;5.95;;;;;;;;;;5065864;28;20462;-59
2021/09/27 08:46:17;;;;;;;10.52;6.20;;;;;;;;;;5062042;28;20115;-60
2021/09/27 08:49:06;;;;;;;10.15;5.88;;;;;;;;;;5069077;28;20116;-60
2021/09/27 08:51:35;;;;;;;10.35;6.47;;;;;;;;;;5024428;28;20611;-60
2021/09/27 08:54:02;;;;;;;12.15;5.93;;;;;;;;;;5065535;28;20073;-58
2021/09/27 08:56:30;;;;;;;7.05;4.82;;;;;;;;;;5069210;28;20071;-60
2021/09/27 08:59:14;;;;;;;9.10;5.53;;;;;;;;;;5062438;28;20478;-59
2021/09/27 09:01:42;;;;;;;8.75;5.20;;;;;;;;;;5062196;28;20376;-57
2021/09/27 09:04:16;;;;;;;6.95;4.68;;;;;;;;;;5064605;28;20017;-58
2021/09/27 09:06:45;;;;;;;10.13;5.72;;;;;;;;;;5058463;28;20024;-60
2021/09/27 09:09:15;;;;;;;9.07;5.63;;;;;;;;;;5063057;28;20025;-60
2021/09/27 09:11:49;;;;;;;8.27;5.15;;;;;;;;;;5066869;28;20111;-60
2021/09/27 09:14:32;;;;;;;9.25;5.80;;;;;;;;;;5069529;28;20025;-60
2021/09/27 09:17:00;;;;;;;8.38;5.25;;;;;;;;;;5070697;28;20036;-59
2021/09/27 09:19:28;;;;;;;7.68;4.60;;;;;;;;;;5066632;28;20043;-60
2021/09/27 09:21:57;;;;;;;8.80;5.65;;;;;;;;;;5060495;28;20025;-58
2021/09/27 09:24:30;;;;;;;8.07;5.13;;;;;;;;;;5068272;28;20020;-60
2021/09/27 09:27:01;;;;;;;11.05;5.35;;;;;;;;;;5064076;28;20035;-60
2021/09/27 09:29:28;;;;;;;10.63;5.60;;;;;;;;;;5060035;28;20033;-58
2021/09/27 09:31:56;;;;;;;8.65;5.35;;;;;;;;;;5064895;28;20099;-59
2021/09/27 09:34:22;;;;;;;10.60;5.03;;;;;;;;;;5068794;28;20036;-60
2021/09/27 09:36:50;;;;;;;8.55;5.78;;;;;;;;;;5070795;28;20119;-58
2021/09/27 09:39:21;;;;;;;7.43;4.80;;;;;;;;;;5058546;28;20033;-59
2021/09/27 09:41:54;;;;;;;8.70;5.72;;;;;;;;;;5067449;28;20100;-59
2021/09/27 09:44:22;;;;;;;9.65;5.10;;;;;;;;;;5059782;28;20028;-58
2021/09/27 09:46:58;;;;;;;7.93;5.03;;;;;;;;;;5072227;28;20032;-60
2021/09/27 09:49:24;;;;;;;7.93;5.10;;;;;;;;;;5070553;28;20070;-58
2021/09/27 09:51:58;;;;;;;7.25;4.70;;;;;;;;;;5065005;28;20037;-59
2021/09/27 09:54:25;;;;;;;7.72;4.85;;;;;;;;;;5070799;28;20078;-59
2021/09/27 09:57:15;;;;;;;10.10;5.65;;;;;;;;;;5069935;28;20573;-58
2021/09/27 09:59:42;;;;;;;7.60;5.13;;;;;;;;;;5074065;28;20025;-60
2021/09/27 10:02:16;;;;;;;6.30;4.20;;;;;;;;;;5071718;28;20029;-59
2021/09/27 10:04:43;;;;;;;6.50;4.07;;;;;;;;;;5066897;28;20028;-53
2021/09/27 10:07:12;;;;;;;7.47;4.68;;;;;;;;;;5067477;28;20671;-57
2021/09/27 10:09:44;;;;;;;7.47;4.40;;;;;;;;;;5075328;28;20024;-54
2021/09/27 10:12:15;;;;;;;7.80;4.35;;;;;;;;;;5070205;28;20531;-57
2021/09/27 10:14:43;;;;;;;7.10;4.78;;;;;;;;;;5075653;28;20124;-58
2021/09/27 10:17:11;;;;;;;6.40;4.60;;;;;;;;;;5072301;28;20040;-54
2021/09/27 10:19:40;;;;;;;7.72;4.47;;;;;;;;;;5070839;28;20040;-56
2021/09/27 10:22:15;;;;;;;6.82;4.65;;;;;;;;;;5074079;28;20526;-55
2021/09/27 10:24:43;;;;;;;8.02;5.03;;;;;;;;;;5071692;28;20487;-56
2021/09/27 10:27:21;;;;;;;7.32;4.68;;;;;;;;;;5073170;28;20031;-56
2021/09/27 10:29:47;;;;;;;6.93;4.30;;;;;;;;;;5073858;28;20709;-56
2021/09/27 10:32:28;;;;;;;6.28;4.30;;;;;;;;;;5074280;28;20111;-56
2021/09/27 10:34:54;;;;;;;9.20;4.10;;;;;;;;;;5080817;28;20068;-56
2021/09/27 10:37:23;;;;;;;6.97;4.00;;;;;;;;;;5073582;28;20068;-56
2021/09/27 10:39:50;;;;;;;5.85;3.38;;;;;;;;;;5073867;28;20032;-54
2021/09/27 10:42:21;;;;;;;5.25;3.58;;;;;;;;;;5072746;28;20043;-58
2021/09/27 10:44:52;;;;;;;5.43;3.67;;;;;;;;;;5073455;28;20028;-55
2021/09/27 10:47:24;;;;;;;8.05;3.97;;;;;;;;;;5071776;28;20036;-55
2021/09/27 10:49:59;;;;;;;4.82;3.42;;;;;;;;;;5069861;28;20024;-58
2021/09/27 10:52:35;;;;;;;6.50;3.42;;;;;;;;;;5068239;28;20483;-56
2021/09/27 10:55:09;;;;;;;5.28;3.35;;;;;;;;;;5073194;28;20416;-58
2021/09/27 10:57:39;;;;;;;9.18;3.80;;;;;;;;;;5070432;28;20037;-55
2021/09/27 11:00:17;;;;;;;5.63;3.53;;;;;;;;;;5065001;28;20034;-55
2021/09/27 11:02:44;;;;;;;8.95;4.07;;;;;;;;;;5075161;28;20042;-57
2021/09/27 11:05:13;;;;;;;6.82;3.90;;;;;;;;;;5069574;28;20028;-58
2021/09/27 11:07:39;;;;;;;4.35;3.10;;;;;;;;;;5070126;28;20028;-58
2021/09/27 11:10:12;;;;;;;5.13;3.13;;;;;;;;;;5063025;28;20029;-55
2021/09/27 11:12:43;;;;;;;5.10;3.20;;;;;;;;;;5073325;28;20488;-57
2021/09/27 11:15:27;;;;;;;5.07;3.35;;;;;;;;;;5071608;28;20381;-58
2021/09/27 11:18:04;;;;;;;5.47;3.78;;;;;;;;;;5060967;28;20494;-56
2021/09/27 11:20:30;;;;;;;6.80;3.72;;;;;;;;;;5063644;28;20071;-58
2021/09/27 11:22:56;;;;;;;5.75;3.50;;;;;;;;;;5072696;28;20032;-57
2021/09/27 11:25:22;;;;;;;5.15;3.10;;;;;;;;;;5068264;28;20035;-58
2021/09/27 11:28:03;;;;;;;5.05;2.78;;;;;;;;;;5068589;28;20028;-59
2021/09/27 11:30:38;;;;;;;4.38;2.88;;;;;;;;;;5072152;28;20031;-59
2021/09/27 11:33:05;;;;;;;6.35;3.17;;;;;;;;;;5060521;28;20041;-56
2021/09/27 11:35:31;;;;;;;5.72;3.17;;;;;;;;;;5068427;28;20083;-59
2021/09/27 11:38:07;;;;;;;4.68;3.20;;;;;;;;;;5065932;28;20078;-59
2021/09/27 11:40:39;;;;;;;4.47;2.97;;;;;;;;;;5072003;28;20028;-59
2021/09/27 11:43:15;;;;;;;7.57;3.60;;;;;;;;;;5072683;28;20035;-58
2021/09/27 11:45:47;;;;;;;4.95;3.38;;;;;;;;;;5072120;28;20031;-59
2021/09/27 11:48:17;;;;;;;5.32;3.17;;;;;;;;;;5067524;28;20074;-57
2021/09/27 11:50:53;;;;;;;7.32;3.05;;;;;;;;;;5072763;28;20515;-59
2021/09/27 11:53:38;;;;;;;4.88;3.03;;;;;;;;;;5070857;28;20028;-59
2021/09/27 11:56:17;;;;;;;4.63;2.95;;;;;;;;;;5061887;28;20547;-58
2021/09/27 11:59:02;;;;;;;4.55;3.08;;;;;;;;;;5070707;28;20012;-59
2021/09/27 12:01:36;;;;;;;5.75;3.30;;;;;;;;;;5065124;28;20028;-58
2021/09/27 12:04:16;;;;;;;5.30;3.28;;;;;;;;;;5078454;28;20021;-57
2021/09/27 12:06:46;;;;;;;5.43;3.15;;;;;;;;;;5068793;28;20063;-58
2021/09/27 12:09:36;;;;;;;5.65;3.13;;;;;;;;;;5063725;28;20028;-61
2021/09/27 12:12:03;;;;;;;7.05;3.42;;;;;;;;;;5069512;28;20036;-58
2021/09/27 12:14:39;;;;;;;5.10;3.50;;;;;;;;;;5066406;28;20032;-59
2021/09/27 12:17:06;;;;;;;5.03;3.13;;;;;;;;;;5064958;28;20596;-59
2021/09/27 12:19:34;;;;;;;5.05;3.60;;;;;;;;;;5073498;28;20107;-57
2021/09/27 12:22:06;;;;;;;5.93;3.35;;;;;;;;;;5070302;28;20071;-58
2021/09/27 12:24:35;;;;;;;5.05;3.80;;;;;;;;;;5065084;28;20025;-58
2021/09/27 12:27:06;;;;;;;9.65;3.92;;;;;;;;;;5067147;28;20021;-57
2021/09/27 12:29:33;;;;;;;6.57;4.05;;;;;;;;;;5073053;28;20033;-58
2021/09/27 12:32:09;;;;;;;7.22;3.47;;;;;;;;;;5076828;28;20042;-57
2021/09/27 12:34:39;;;;;;;6.20;2.97;;;;;;;;;;5070695;28;20032;-57
2021/09/27 12:37:09;;;;;;;6.25;3.95;;;;;;;;;;5080757;28;20038;-57
2021/09/27 12:39:35;;;;;;;8.20;3.65;;;;;;;;;;5065416;28;20037;-57
2021/09/27 12:42:03;;;;;;;6.32;3.83;;;;;;;;;;5062993;28;20042;-57
2021/09/27 12:44:31;;;;;;;5.78;3.75;;;;;;;;;;5070674;28;20067;-57
2021/09/27 12:47:00;;;;;;;7.20;3.80;;;;;;;;;;5072560;28;20512;-59
2021/09/27 12:49:35;;;;;;;5.30;3.75;;;;;;;;;;5071284;28;20031;-58
2021/09/27 12:52:02;;;;;;;9.00;4.15;;;;;;;;;;5071283;28;20089;-56
2021/09/27 12:54:30;;;;;;;5.65;3.92;;;;;;;;;;5070495;28;20032;-57
2021/09/27 12:56:58;;;;;;;8.38;5.22;;;;;;;;;;5071139;28;20468;-55
2021/09/27 12:59:25;;;;;;;6.78;4.43;;;;;;;;;;5065289;28;20481;-54
2021/09/27 13:01:57;;;;;;;6.90;4.32;;;;;;;;;;5070799;28;20033;-55
2021/09/27 13:04:31;;;;;;;7.05;4.65;;;;;;;;;;5064664;28;20025;-57
2021/09/27 13:07:16;;;;;;;8.90;5.28;;;;;;;;;;5072794;28;20023;-57
2021/09/27 13:10:09;;;;;;;6.47;4.43;;;;;;;;;;5064469;28;20037;-59
2021/09/27 13:12:37;;;;;;;6.95;4.85;;;;;;;;;;5069604;28;20025;-58
2021/09/27 13:15:18;;;;;;;6.05;4.50;;;;;;;;;;5068460;28;20651;-56
2021/09/27 13:17:59;;;;;;;7.10;4.28;;;;;;;;;;5068318;28;20047;-59
2021/09/27 13:20:28;;;;;;;7.70;5.47;;;;;;;;;;5065952;28;20108;-57
2021/09/27 13:22:54;;;;;;;8.75;5.70;;;;;;;;;;5064002;28;20032;-58
2021/09/27 13:25:31;;;;;;;9.43;5.50;;;;;;;;;;5075096;28;20468;-58
2021/09/27 13:28:02;;;;;;;8.65;5.53;;;;;;;;;;5065243;28;20057;-57
2021/09/27 13:30:32;;;;;;;7.38;4.32;;;;;;;;;;5068848;28;20060;-58
2021/09/27 13:33:00;;;;;;;7.93;5.13;;;;;;;;;;5067753;28;20102;-53
2021/09/27 13:35:31;;;;;;;9.13;5.88;;;;;;;;;;5071143;28;20035;-56
2021/09/27 13:38:05;;;;;;;8.68;5.63;;;;;;;;;;5072884;28;20086;-55
2021/09/27 13:40:43;;;;;;;7.57;5.35;;;;;;;;;;5067025;28;20025;-53
2021/09/27 13:43:23;;;;;;;7.45;5.35;;;;;;;;;;5073405;28;20032;-55
2021/09/27 13:45:50;;;;;;;7.40;4.97;;;;;;;;;;5073815;28;20028;-55
2021/09/27 13:48:17;;;;;;;6.63;5.00;;;;;;;;;;5070046;28;20463;-56
2021/09/27 13:50:44;;;;;;;8.48;5.55;;;;;;;;;;5064601;28;20082;-55
2021/09/27 13:53:17;;;;;;;7.68;5.28;;;;;;;;;;5073452;28;20514;-54
2021/09/27 13:55:43;;;;;;;9.85;6.00;;;;;;;;;;5069160;28;20020;-56
2021/09/27 13:58:09;;;;;;;8.30;5.00;;;;;;;;;;5066409;28;20037;-56
2021/09/27 14:00:35;;;;;;;9.95;6.00;;;;;;;;;;5065404;28;20028;-57
2021/09/27 14:03:02;;;;;;;11.05;5.50;;;;;;;;;;5071427;28;20036;-56
2021/09/27 14:05:28;;;;;;;9.57;5.93;;;;;;;;;;5047214;28;20043;-55
2021/09/27 14:07:54;;;;;;;7.90;5.30;;;;;;;;;;5050596;28;20089;-56
2021/09/27 14:10:20;;;;;;;10.05;5.40;;;;;;;;;;5050943;28;20028;-56
2021/09/27 14:12:46;;;;;;;9.55;5.82;;;;;;;;;;5050191;28;20082;-57
2021/09/27 14:15:12;;;;;;;8.70;5.70;;;;;;;;;;5047877;28;20028;-56
2021/09/27 14:17:38;;;;;;;9.32;5.70;;;;;;;;;;5048914;28;20044;-57
2021/09/27 14:20:06;;;;;;;10.30;6.35;;;;;;;;;;5066054;28;20079;-57
2021/09/27 14:22:33;;;;;;;8.18;5.82;;;;;;;;;;5069179;28;20031;-56
2021/09/27 14:24:59;;;;;;;12.70;6.10;;;;;;;;;;5073025;28;20041;-57
2021/09/27 14:27:26;;;;;;;9.15;5.70;;;;;;;;;;5067556;28;20036;-57
2021/09/27 14:29:52;;;;;;;9.60;6.13;;;;;;;;;;5069787;28;20100;-58
2021/09/27 14:32:18;;;;;;;9.48;6.15;;;;;;;;;;5068302;28;20024;-56
2021/09/27 14:34:44;;;;;;;10.82;6.25;;;;;;;;;;5066266;28;20071;-57
2021/09/27 14:37:10;;;;;;;9.77;5.95;;;;;;;;;;5073207;28;20027;-55
2021/09/27 14:39:36;;;;;;;12.57;6.50;;;;;;;;;;5073765;28;20024;-56
2021/09/27 14:42:03;;;;;;;11.60;6.28;;;;;;;;;;5074311;28;20034;-54
2021/09/27 14:44:29;;;;;;;8.20;5.30;;;;;;;;;;5073925;28;20063;-56
2021/09/27 14:46:55;;;;;;;7.57;5.25;;;;;;;;;;5071385;28;20056;-54
2021/09/27 14:49:21;;;;;;;8.60;5.80;;;;;;;;;;5073255;28;20510;-55
2021/09/27 14:51:47;;;;;;;7.78;5.47;;;;;;;;;;5073112;28;20029;-55
2021/09/27 14:54:13;;;;;;;8.23;5.60;;;;;;;;;;5071691;28;20487;-55
2021/09/27 14:56:39;;;;;;;9.25;6.00;;;;;;;;;;5068510;28;20040;-57
2021/09/27 14:59:05;;;;;;;11.30;6.10;;;;;;;;;;5072079;28;20025;-55
2021/09/27 15:01:31;;;;;;;8.52;5.50;;;;;;;;;;5074184;28;20029;-58
2021/09/27 15:03:57;;;;;;;10.52;5.80;;;;;;;;;;5072049;28;20735;-55
2021/09/27 15:06:24;;;;;;;9.57;5.90;;;;;;;;;;5073833;28;20021;-56